Time,TemperatureF,DewpointF,PressureIn,WindDirection,WindDirectionDegrees,WindSpeedMPH,WindSpeedGustMPH,Humidity,HourlyPrecipIn,Conditions,Clouds,dailyrainin,SoftwareType,DateUTC
2013-05-18 00:02:00,53.1,42.7,0.00,WNW,286,2.8,4.8,68,0.00,,,0.00,WUHU216CR1000,2013-05-18 07:02:00,
2013-05-18 00:07:00,53.1,42.7,0.00,WNW,286,2.8,4.8,68,0.00,,,0.00,WUHU216CR1000,2013-05-18 07:07:00,
2013-05-18 00:17:00,52.8,42.7,0.00,WNW,301,0.9,4.1,69,0.00,,,0.00,WUHU216CR1000,2013-05-18 07:17:00,
2013-05-18 00:22:00,52.8,42.7,0.00,WNW,301,0.9,4.1,69,0.00,,,0.00,WUHU216CR1000,2013-05-18 07:22:00,
2013-05-18 00:32:00,51.6,42.5,0.00,WNW,286,0.5,3.4,71,0.00,,,0.00,WUHU216CR1000,2013-05-18 07:32:00,
2013-05-18 00:37:00,51.6,42.5,0.00,WNW,286,0.5,3.4,71,0.00,,,0.00,WUHU216CR1000,2013-05-18 07:37:00,
2013-05-18 00:47:00,51.4,42.6,0.00,North,0,0.0,0.0,72,0.00,,,0.00,WUHU216CR1000,2013-05-18 07:47:00,
2013-05-18 00:52:00,51.4,42.6,0.00,North,0,0.0,0.0,72,0.00,,,0.00,WUHU216CR1000,2013-05-18 07:52:00,
2013-05-18 01:02:00,48.9,42.1,0.00,ESE,109,0.1,2.6,77,0.00,,,0.00,WUHU216CR1000,2013-05-18 08:02:00,
2013-05-18 01:07:00,48.9,42.1,0.00,ESE,109,0.1,2.6,77,0.00,,,0.00,WUHU216CR1000,2013-05-18 08:07:00,
2013-05-18 01:17:00,47.5,42.5,0.00,East,97,0.2,3.3,82,0.00,,,0.00,WUHU216CR1000,2013-05-18 08:17:00,
2013-05-18 01:22:00,47.5,42.5,0.00,East,97,0.2,3.3,82,0.00,,,0.00,WUHU216CR1000,2013-05-18 08:22:00,
2013-05-18 01:32:00,48.7,42.6,0.00,ESE,117,0.3,4.1,79,0.00,,,0.00,WUHU216CR1000,2013-05-18 08:32:00,
2013-05-18 01:37:00,48.7,42.6,0.00,ESE,117,0.3,4.1,79,0.00,,,0.00,WUHU216CR1000,2013-05-18 08:37:00,
2013-05-18 01:47:00,47.6,42.1,0.00,WNW,296,0.1,2.0,81,0.00,,,0.00,WUHU216CR1000,2013-05-18 08:47:00,
2013-05-18 01:52:00,47.6,42.1,0.00,WNW,296,0.1,2.0,81,0.00,,,0.00,WUHU216CR1000,2013-05-18 08:52:00,
2013-05-18 02:02:00,49.0,42.7,0.00,WNW,302,1.4,4.8,79,0.00,,,0.00,WUHU216CR1000,2013-05-18 09:02:00,
2013-05-18 02:07:00,49.0,42.7,0.00,WNW,302,1.4,4.8,79,0.00,,,0.00,WUHU216CR1000,2013-05-18 09:07:00,
2013-05-18 02:17:00,49.8,42.7,0.00,NNW,328,0.2,2.5,76,0.00,,,0.00,WUHU216CR1000,2013-05-18 09:17:00,
2013-05-18 02:22:00,49.8,42.7,0.00,NNW,328,0.2,2.5,76,0.00,,,0.00,WUHU216CR1000,2013-05-18 09:22:00,
2013-05-18 02:32:00,48.9,42.3,0.00,NE,53,0.7,3.5,78,0.00,,,0.00,WUHU216CR1000,2013-05-18 09:32:00,
2013-05-18 02:37:00,48.9,42.3,0.00,NE,53,0.7,3.5,78,0.00,,,0.00,WUHU216CR1000,2013-05-18 09:37:00,
2013-05-18 02:47:00,47.8,42.5,0.00,NE,44,2.1,4.2,82,0.00,,,0.00,WUHU216CR1000,2013-05-18 09:47:00,
2013-05-18 02:52:00,47.8,42.5,0.00,NE,44,2.1,4.2,82,0.00,,,0.00,WUHU216CR1000,2013-05-18 09:52:00,
2013-05-18 03:02:00,47.8,42.2,0.00,East,87,2.4,3.6,81,0.00,,,0.00,WUHU216CR1000,2013-05-18 10:02:00,
2013-05-18 03:07:00,47.8,42.2,0.00,East,87,2.4,3.6,81,0.00,,,0.00,WUHU216CR1000,2013-05-18 10:07:00,
2013-05-18 03:17:00,45.9,41.7,0.00,ESE,107,1.9,3.6,85,0.00,,,0.00,WUHU216CR1000,2013-05-18 10:17:00,
2013-05-18 03:22:00,45.9,41.7,0.00,ESE,107,1.9,3.6,85,0.00,,,0.00,WUHU216CR1000,2013-05-18 10:22:00,
2013-05-18 03:32:00,45.4,41.8,0.00,ESE,105,1.5,3.8,87,0.00,,,0.00,WUHU216CR1000,2013-05-18 10:32:00,
2013-05-18 03:37:00,45.4,41.8,0.00,ESE,105,1.5,3.8,87,0.00,,,0.00,WUHU216CR1000,2013-05-18 10:37:00,
2013-05-18 03:47:00,45.4,41.6,0.00,ESE,118,0.3,2.4,87,0.00,,,0.00,WUHU216CR1000,2013-05-18 10:47:00,
2013-05-18 03:52:00,45.4,41.6,0.00,ESE,118,0.3,2.4,87,0.00,,,0.00,WUHU216CR1000,2013-05-18 10:52:00,
2013-05-18 04:02:00,45.1,41.6,0.00,ENE,65,0.9,2.6,87,0.00,,,0.00,WUHU216CR1000,2013-05-18 11:02:00,
2013-05-18 04:07:00,45.1,41.6,0.00,ENE,65,0.9,2.6,87,0.00,,,0.00,WUHU216CR1000,2013-05-18 11:07:00,
2013-05-18 04:17:00,44.7,41.3,0.00,East,90,2.1,3.4,88,0.00,,,0.00,WUHU216CR1000,2013-05-18 11:17:00,
2013-05-18 04:22:00,44.7,41.3,0.00,East,90,2.1,3.4,88,0.00,,,0.00,WUHU216CR1000,2013-05-18 11:22:00,
2013-05-18 04:32:00,45.4,41.2,0.00,ENE,66,2.0,3.4,85,0.00,,,0.00,WUHU216CR1000,2013-05-18 11:32:00,
2013-05-18 04:37:00,45.4,41.2,0.00,ENE,66,2.0,3.4,85,0.00,,,0.00,WUHU216CR1000,2013-05-18 11:37:00,
2013-05-18 04:47:00,43.6,40.2,0.00,East,83,2.1,3.2,88,0.00,,,0.00,WUHU216CR1000,2013-05-18 11:47:00,
2013-05-18 04:52:00,43.6,40.2,0.00,East,83,2.1,3.2,88,0.00,,,0.00,WUHU216CR1000,2013-05-18 11:52:00,
2013-05-18 05:02:00,41.9,39.0,0.00,East,85,1.0,3.4,90,0.00,,,0.00,WUHU216CR1000,2013-05-18 12:02:00,
2013-05-18 05:07:00,41.9,39.0,0.00,East,85,1.0,3.4,90,0.00,,,0.00,WUHU216CR1000,2013-05-18 12:07:00,
2013-05-18 05:17:00,41.4,39.1,0.00,East,81,1.7,3.0,91,0.00,,,0.00,WUHU216CR1000,2013-05-18 12:17:00,
2013-05-18 05:22:00,41.4,39.1,0.00,East,81,1.7,3.0,91,0.00,,,0.00,WUHU216CR1000,2013-05-18 12:22:00,
2013-05-18 05:32:00,41.2,39.2,0.00,ESE,113,2.5,3.9,92,0.00,,,0.00,WUHU216CR1000,2013-05-18 12:32:00,
2013-05-18 05:37:00,41.2,39.2,0.00,ESE,113,2.5,3.9,92,0.00,,,0.00,WUHU216CR1000,2013-05-18 12:37:00,
2013-05-18 05:47:00,41.5,39.7,0.00,East,99,1.3,3.8,93,0.00,,,0.00,WUHU216CR1000,2013-05-18 12:47:00,
2013-05-18 05:52:00,41.5,39.7,0.00,East,99,1.3,3.8,93,0.00,,,0.00,WUHU216CR1000,2013-05-18 12:52:00,
2013-05-18 06:02:00,41.0,39.2,0.00,WSW,241,0.7,3.5,93,0.00,,,0.00,WUHU216CR1000,2013-05-18 13:02:00,
2013-05-18 06:07:00,41.0,39.2,0.00,WSW,241,0.7,3.5,93,0.00,,,0.00,WUHU216CR1000,2013-05-18 13:07:00,
2013-05-18 06:17:00,40.0,38.1,0.00,North,0,0.0,0.0,93,0.00,,,0.00,WUHU216CR1000,2013-05-18 13:17:00,
2013-05-18 06:22:00,40.0,38.1,0.00,North,0,0.0,0.0,93,0.00,,,0.00,WUHU216CR1000,2013-05-18 13:22:00,
2013-05-18 06:32:00,39.9,37.9,0.00,North,0,0.0,0.0,93,0.00,,,0.00,WUHU216CR1000,2013-05-18 13:32:00,
2013-05-18 06:37:00,39.9,37.9,0.00,North,0,0.0,0.0,93,0.00,,,0.00,WUHU216CR1000,2013-05-18 13:37:00,
2013-05-18 06:47:00,42.1,40.1,0.00,ESE,108,1.1,2.6,93,0.00,,,0.00,WUHU216CR1000,2013-05-18 13:47:00,
2013-05-18 06:52:00,42.1,40.1,0.00,ESE,108,1.1,2.6,93,0.00,,,0.00,WUHU216CR1000,2013-05-18 13:52:00,
2013-05-18 07:02:00,44.5,41.7,0.00,East,90,0.5,2.6,90,0.00,,,0.00,WUHU216CR1000,2013-05-18 14:02:00,
2013-05-18 07:07:00,44.5,41.7,0.00,East,90,0.5,2.6,90,0.00,,,0.00,WUHU216CR1000,2013-05-18 14:07:00,
2013-05-18 07:17:00,46.6,42.7,0.00,ENE,74,0.7,2.4,86,0.00,,,0.00,WUHU216CR1000,2013-05-18 14:17:00,
2013-05-18 07:22:00,46.6,42.7,0.00,ENE,74,0.7,2.4,86,0.00,,,0.00,WUHU216CR1000,2013-05-18 14:22:00,
2013-05-18 07:32:00,48.7,44.0,0.00,East,101,1.4,3.0,84,0.00,,,0.00,WUHU216CR1000,2013-05-18 14:32:00,
2013-05-18 07:37:00,48.7,44.0,0.00,East,101,1.4,3.0,84,0.00,,,0.00,WUHU216CR1000,2013-05-18 14:37:00,
2013-05-18 07:47:00,51.1,44.9,0.00,East,100,1.1,3.1,79,0.00,,,0.00,WUHU216CR1000,2013-05-18 14:47:00,
2013-05-18 07:52:00,51.1,44.9,0.00,East,100,1.1,3.1,79,0.00,,,0.00,WUHU216CR1000,2013-05-18 14:52:00,
2013-05-18 08:02:00,53.4,45.1,0.00,East,85,0.4,2.3,73,0.00,,,0.00,WUHU216CR1000,2013-05-18 15:02:00,
2013-05-18 08:07:00,53.4,45.1,0.00,East,85,0.4,2.3,73,0.00,,,0.00,WUHU216CR1000,2013-05-18 15:07:00,
2013-05-18 08:17:00,54.7,45.5,0.00,SE,142,0.8,3.7,71,0.00,,,0.00,WUHU216CR1000,2013-05-18 15:17:00,
2013-05-18 08:22:00,54.7,45.5,0.00,SE,142,0.8,3.7,71,0.00,,,0.00,WUHU216CR1000,2013-05-18 15:22:00,
2013-05-18 08:32:00,57.3,45.9,0.00,WSW,241,0.3,2.3,66,0.00,,,0.00,WUHU216CR1000,2013-05-18 15:32:00,
2013-05-18 08:37:00,57.3,45.9,0.00,WSW,241,0.3,2.3,66,0.00,,,0.00,WUHU216CR1000,2013-05-18 15:37:00,
2013-05-18 08:46:00,59.4,46.3,0.00,NNW,338,2.4,11.5,62,0.00,,,0.00,WUHU216CR1000,2013-05-18 15:46:00,
2013-05-18 08:47:00,59.4,46.3,0.00,NNW,338,2.4,11.5,62,0.00,,,0.00,WUHU216CR1000,2013-05-18 15:47:00,
2013-05-18 08:52:00,59.4,46.3,0.00,NNW,338,2.4,11.5,62,0.00,,,0.00,WUHU216CR1000,2013-05-18 15:52:00,
2013-05-18 09:02:00,60.8,45.8,0.00,NW,315,5.9,10.9,58,0.00,,,0.00,WUHU216CR1000,2013-05-18 16:02:00,
2013-05-18 09:07:00,60.8,45.8,0.00,NW,315,5.9,10.9,58,0.00,,,0.00,WUHU216CR1000,2013-05-18 16:07:00,
2013-05-18 09:17:00,62.0,45.6,0.00,NW,315,7.2,16.0,55,0.00,,,0.00,WUHU216CR1000,2013-05-18 16:17:00,
2013-05-18 09:22:00,62.0,45.6,0.00,NW,315,7.2,16.0,55,0.00,,,0.00,WUHU216CR1000,2013-05-18 16:22:00,
2013-05-18 09:32:00,62.9,44.7,0.00,NW,323,8.9,15.8,51,0.00,,,0.00,WUHU216CR1000,2013-05-18 16:32:00,
2013-05-18 09:37:00,62.9,44.7,0.00,NW,323,8.9,15.8,51,0.00,,,0.00,WUHU216CR1000,2013-05-18 16:37:00,
2013-05-18 09:47:00,64.2,44.7,0.00,NW,323,8.8,15.4,49,0.00,,,0.00,WUHU216CR1000,2013-05-18 16:47:00,
2013-05-18 09:52:00,64.2,44.7,0.00,NW,323,8.8,15.4,49,0.00,,,0.00,WUHU216CR1000,2013-05-18 16:52:00,
2013-05-18 10:02:00,65.3,44.1,0.00,NW,307,9.4,15.6,46,0.00,,,0.00,WUHU216CR1000,2013-05-18 17:02:00,
2013-05-18 10:07:00,65.3,44.1,0.00,NW,307,9.4,15.6,46,0.00,,,0.00,WUHU216CR1000,2013-05-18 17:07:00,
2013-05-18 10:17:00,66.6,43.3,0.00,NW,312,9.9,17.8,43,0.00,,,0.00,WUHU216CR1000,2013-05-18 17:17:00,
2013-05-18 10:22:00,66.6,43.3,0.00,NW,312,9.9,17.8,43,0.00,,,0.00,WUHU216CR1000,2013-05-18 17:22:00,
2013-05-18 10:32:00,67.5,42.5,0.00,NW,309,10.2,17.4,40,0.00,,,0.00,WUHU216CR1000,2013-05-18 17:32:00,
2013-05-18 10:37:00,67.5,42.5,0.00,NW,309,10.2,17.4,40,0.00,,,0.00,WUHU216CR1000,2013-05-18 17:37:00,
2013-05-18 10:47:00,69.0,42.5,0.00,NW,314,9.2,17.0,38,0.00,,,0.00,WUHU216CR1000,2013-05-18 17:47:00,
2013-05-18 10:52:00,69.0,42.5,0.00,NW,314,9.2,17.0,38,0.00,,,0.00,WUHU216CR1000,2013-05-18 17:52:00,
2013-05-18 11:02:00,70.4,41.5,0.00,NW,308,10.0,16.8,35,0.00,,,0.00,WUHU216CR1000,2013-05-18 18:02:00,
2013-05-18 11:07:00,70.4,41.5,0.00,NW,308,10.0,16.8,35,0.00,,,0.00,WUHU216CR1000,2013-05-18 18:07:00,
2013-05-18 11:17:00,72.0,39.9,0.00,WNW,302,9.7,17.9,31,0.00,,,0.00,WUHU216CR1000,2013-05-18 18:17:00,
2013-05-18 11:22:00,72.0,39.9,0.00,WNW,302,9.7,17.9,31,0.00,,,0.00,WUHU216CR1000,2013-05-18 18:22:00,
2013-05-18 11:32:00,72.7,39.4,0.00,NW,306,8.5,18.7,30,0.00,,,0.00,WUHU216CR1000,2013-05-18 18:32:00,
2013-05-18 11:37:00,72.7,39.4,0.00,NW,306,8.5,18.7,30,0.00,,,0.00,WUHU216CR1000,2013-05-18 18:37:00,
2013-05-18 11:47:00,74.2,39.1,0.00,WNW,298,8.1,14.8,28,0.00,,,0.00,WUHU216CR1000,2013-05-18 18:47:00,
2013-05-18 11:52:00,74.2,39.1,0.00,WNW,298,8.1,14.8,28,0.00,,,0.00,WUHU216CR1000,2013-05-18 18:52:00,
2013-05-18 12:02:00,75.2,39.1,0.00,NW,304,7.8,16.8,27,0.00,,,0.00,WUHU216CR1000,2013-05-18 19:02:00,
2013-05-18 12:07:00,75.2,39.1,0.00,NW,304,7.8,16.8,27,0.00,,,0.00,WUHU216CR1000,2013-05-18 19:07:00,
2013-05-18 12:17:00,76.0,39.2,0.00,NW,310,10.1,18.5,26,0.00,,,0.00,WUHU216CR1000,2013-05-18 19:17:00,
2013-05-18 12:22:00,76.0,39.2,0.00,NW,310,10.1,18.5,26,0.00,,,0.00,WUHU216CR1000,2013-05-18 19:22:00,
2013-05-18 12:32:00,77.2,40.0,0.00,NW,306,9.4,19.0,26,0.00,,,0.00,WUHU216CR1000,2013-05-18 19:32:00,
2013-05-18 12:37:00,77.2,40.0,0.00,NW,306,9.4,19.0,26,0.00,,,0.00,WUHU216CR1000,2013-05-18 19:37:00,
2013-05-18 12:47:00,77.3,40.5,0.00,NW,310,10.8,17.8,27,0.00,,,0.00,WUHU216CR1000,2013-05-18 19:47:00,
2013-05-18 12:52:00,77.3,40.5,0.00,NW,310,10.8,17.8,27,0.00,,,0.00,WUHU216CR1000,2013-05-18 19:52:00,
2013-05-18 13:02:00,77.9,41.5,0.00,NW,309,10.2,17.2,27,0.00,,,0.00,WUHU216CR1000,2013-05-18 20:02:00,
2013-05-18 13:07:00,77.9,41.5,0.00,NW,309,10.2,17.2,27,0.00,,,0.00,WUHU216CR1000,2013-05-18 20:07:00,
2013-05-18 13:17:00,79.0,43.0,0.00,NW,304,11.5,21.5,28,0.00,,,0.00,WUHU216CR1000,2013-05-18 20:17:00,
2013-05-18 13:22:00,79.0,43.0,0.00,NW,304,11.5,21.5,28,0.00,,,0.00,WUHU216CR1000,2013-05-18 20:22:00,
2013-05-18 13:32:00,79.1,43.9,0.00,NW,310,10.4,18.1,29,0.00,,,0.00,WUHU216CR1000,2013-05-18 20:32:00,
2013-05-18 13:37:00,79.1,43.9,0.00,NW,310,10.4,18.1,29,0.00,,,0.00,WUHU216CR1000,2013-05-18 20:37:00,
2013-05-18 13:47:00,80.0,45.8,0.00,WNW,286,10.6,20.6,30,0.00,,,0.00,WUHU216CR1000,2013-05-18 20:47:00,
2013-05-18 13:52:00,80.0,45.8,0.00,WNW,286,10.6,20.6,30,0.00,,,0.00,WUHU216CR1000,2013-05-18 20:52:00,
2013-05-18 14:02:00,80.1,46.3,0.00,WNW,287,11.3,20.8,30,0.00,,,0.00,WUHU216CR1000,2013-05-18 21:02:00,
2013-05-18 14:07:00,80.1,46.3,0.00,WNW,287,11.3,20.8,30,0.00,,,0.00,WUHU216CR1000,2013-05-18 21:07:00,
2013-05-18 14:17:00,79.9,46.4,0.00,West,281,13.3,20.6,31,0.00,,,0.00,WUHU216CR1000,2013-05-18 21:17:00,
2013-05-18 14:22:00,79.9,46.4,0.00,West,281,13.3,20.6,31,0.00,,,0.00,WUHU216CR1000,2013-05-18 21:22:00,
2013-05-18 14:32:00,80.5,46.8,0.00,West,281,13.5,23.4,31,0.00,,,0.00,WUHU216CR1000,2013-05-18 21:32:00,
2013-05-18 14:37:00,80.5,46.8,0.00,West,281,13.5,23.4,31,0.00,,,0.00,WUHU216CR1000,2013-05-18 21:37:00,
2013-05-18 14:47:00,80.2,46.9,0.00,West,271,14.4,22.9,31,0.00,,,0.00,WUHU216CR1000,2013-05-18 21:47:00,
2013-05-18 14:52:00,80.2,46.9,0.00,West,271,14.4,22.9,31,0.00,,,0.00,WUHU216CR1000,2013-05-18 21:52:00,
2013-05-18 14:57:00,80.2,46.9,0.00,West,271,14.4,22.9,31,0.00,,,0.00,WUHU216CR1000,2013-05-18 21:57:00,
2013-05-18 15:02:00,80.6,47.4,0.00,WNW,282,13.1,21.5,31,0.00,,,0.00,WUHU216CR1000,2013-05-18 22:02:00,
2013-05-18 15:07:00,80.6,47.4,0.00,WNW,282,13.1,21.5,31,0.00,,,0.00,WUHU216CR1000,2013-05-18 22:07:00,
2013-05-18 15:17:00,80.4,47.3,0.00,WNW,289,11.9,24.4,31,0.00,,,0.00,WUHU216CR1000,2013-05-18 22:17:00,
2013-05-18 15:22:00,80.4,47.3,0.00,WNW,289,11.9,24.4,31,0.00,,,0.00,WUHU216CR1000,2013-05-18 22:22:00,
2013-05-18 15:32:00,80.3,47.9,0.00,West,271,12.3,19.8,32,0.00,,,0.00,WUHU216CR1000,2013-05-18 22:32:00,
2013-05-18 15:37:00,80.3,47.9,0.00,West,271,12.3,19.8,32,0.00,,,0.00,WUHU216CR1000,2013-05-18 22:37:00,
2013-05-18 15:47:00,79.7,47.8,0.00,West,271,14.2,22.7,33,0.00,,,0.00,WUHU216CR1000,2013-05-18 22:47:00,
2013-05-18 15:52:00,79.7,47.8,0.00,West,271,14.2,22.7,33,0.00,,,0.00,WUHU216CR1000,2013-05-18 22:52:00,
2013-05-18 16:02:00,79.2,48.0,0.00,WNW,287,12.7,21.4,33,0.00,,,0.00,WUHU216CR1000,2013-05-18 23:02:00,
2013-05-18 16:07:00,79.2,48.0,0.00,WNW,287,12.7,21.4,33,0.00,,,0.00,WUHU216CR1000,2013-05-18 23:07:00,
2013-05-18 16:17:00,79.5,48.5,0.00,West,281,12.4,22.0,34,0.00,,,0.00,WUHU216CR1000,2013-05-18 23:17:00,
2013-05-18 16:22:00,79.5,48.5,0.00,West,281,12.4,22.0,34,0.00,,,0.00,WUHU216CR1000,2013-05-18 23:22:00,
2013-05-18 16:47:00,79.0,48.7,0.00,WNW,300,12.4,21.8,35,0.00,,,0.00,WUHU216CR1000,2013-05-18 23:47:00,
2013-05-18 16:52:00,79.0,48.7,0.00,WNW,300,12.4,21.8,35,0.00,,,0.00,WUHU216CR1000,2013-05-18 23:52:00,
2013-05-18 17:02:00,79.3,49.2,0.00,WNW,289,11.7,20.1,35,0.00,,,0.00,WUHU216CR1000,2013-05-19 00:02:00,
2013-05-18 17:07:00,79.3,49.2,0.00,WNW,289,11.7,20.1,35,0.00,,,0.00,WUHU216CR1000,2013-05-19 00:07:00,
2013-05-18 17:17:00,78.7,49.4,0.00,WNW,284,11.9,20.3,36,0.00,,,0.00,WUHU216CR1000,2013-05-19 00:17:00,
2013-05-18 17:22:00,78.7,49.4,0.00,WNW,284,11.9,20.3,36,0.00,,,0.00,WUHU216CR1000,2013-05-19 00:22:00,
2013-05-18 17:32:00,78.5,49.8,0.00,West,281,11.9,19.9,37,0.00,,,0.00,WUHU216CR1000,2013-05-19 00:32:00,
2013-05-18 17:37:00,78.5,49.8,0.00,West,281,11.9,19.9,37,0.00,,,0.00,WUHU216CR1000,2013-05-19 00:37:00,
2013-05-18 17:47:00,78.0,50.1,0.00,West,278,12.2,20.6,38,0.00,,,0.00,WUHU216CR1000,2013-05-19 00:47:00,
2013-05-18 17:52:00,78.0,50.1,0.00,West,278,12.2,20.6,38,0.00,,,0.00,WUHU216CR1000,2013-05-19 00:52:00,
2013-05-18 18:02:00,77.5,50.3,0.00,West,278,12.8,18.6,38,0.00,,,0.00,WUHU216CR1000,2013-05-19 01:02:00,
2013-05-18 18:07:00,77.5,50.3,0.00,West,278,12.8,18.6,38,0.00,,,0.00,WUHU216CR1000,2013-05-19 01:07:00,
2013-05-18 18:17:00,76.8,50.5,0.00,West,277,12.3,22.5,40,0.00,,,0.00,WUHU216CR1000,2013-05-19 01:17:00,
2013-05-18 18:22:00,76.8,50.5,0.00,West,277,12.3,22.5,40,0.00,,,0.00,WUHU216CR1000,2013-05-19 01:22:00,
2013-05-18 18:32:00,75.8,50.7,0.00,West,275,11.2,18.3,41,0.00,,,0.00,WUHU216CR1000,2013-05-19 01:32:00,
2013-05-18 18:37:00,75.8,50.7,0.00,West,275,11.2,18.3,41,0.00,,,0.00,WUHU216CR1000,2013-05-19 01:37:00,
2013-05-18 18:47:00,75.0,50.7,0.00,West,279,12.1,20.4,43,0.00,,,0.00,WUHU216CR1000,2013-05-19 01:47:00,
2013-05-18 18:52:00,75.0,50.7,0.00,West,279,12.1,20.4,43,0.00,,,0.00,WUHU216CR1000,2013-05-19 01:52:00,
2013-05-18 19:02:00,74.4,50.3,0.00,WNW,283,11.8,20.8,43,0.00,,,0.00,WUHU216CR1000,2013-05-19 02:02:00,
2013-05-18 19:07:00,74.4,50.3,0.00,WNW,283,11.8,20.8,43,0.00,,,0.00,WUHU216CR1000,2013-05-19 02:07:00,
2013-05-18 19:17:00,73.3,50.0,0.00,WNW,285,12.0,19.5,44,0.00,,,0.00,WUHU216CR1000,2013-05-19 02:17:00,
2013-05-18 19:22:00,73.3,50.0,0.00,WNW,285,12.0,19.5,44,0.00,,,0.00,WUHU216CR1000,2013-05-19 02:22:00,
2013-05-18 19:32:00,72.1,49.6,0.00,WNW,282,12.3,21.1,45,0.00,,,0.00,WUHU216CR1000,2013-05-19 02:32:00,
2013-05-18 19:37:00,72.1,49.6,0.00,WNW,282,12.3,21.1,45,0.00,,,0.00,WUHU216CR1000,2013-05-19 02:37:00,
2013-05-18 19:47:00,70.4,49.2,0.00,West,277,12.4,19.9,47,0.00,,,0.00,WUHU216CR1000,2013-05-19 02:47:00,
2013-05-18 19:52:00,70.4,49.2,0.00,West,277,12.4,19.9,47,0.00,,,0.00,WUHU216CR1000,2013-05-19 02:52:00,
2013-05-18 20:02:00,69.2,49.0,0.00,West,277,11.9,20.8,49,0.00,,,0.00,WUHU216CR1000,2013-05-19 03:02:00,
2013-05-18 20:07:00,69.2,49.0,0.00,West,277,11.9,20.8,49,0.00,,,0.00,WUHU216CR1000,2013-05-19 03:07:00,
2013-05-18 20:17:00,68.1,48.3,0.00,West,276,11.2,18.1,49,0.00,,,0.00,WUHU216CR1000,2013-05-19 03:17:00,
2013-05-18 20:22:00,68.1,48.3,0.00,West,276,11.2,18.1,49,0.00,,,0.00,WUHU216CR1000,2013-05-19 03:22:00,
2013-05-18 20:32:00,67.0,47.4,0.00,West,279,10.9,18.2,49,0.00,,,0.00,WUHU216CR1000,2013-05-19 03:32:00,
2013-05-18 20:37:00,67.0,47.4,0.00,West,279,10.9,18.2,49,0.00,,,0.00,WUHU216CR1000,2013-05-19 03:37:00,
2013-05-18 20:47:00,66.3,46.8,0.00,WNW,287,9.3,16.2,49,0.00,,,0.00,WUHU216CR1000,2013-05-19 03:47:00,
2013-05-18 20:52:00,66.3,46.8,0.00,WNW,287,9.3,16.2,49,0.00,,,0.00,WUHU216CR1000,2013-05-19 03:52:00,
2013-05-18 21:02:00,65.4,46.4,0.00,WNW,287,8.5,15.6,50,0.00,,,0.00,WUHU216CR1000,2013-05-19 04:02:00,
2013-05-18 21:07:00,65.4,46.4,0.00,WNW,287,8.5,15.6,50,0.00,,,0.00,WUHU216CR1000,2013-05-19 04:07:00,
2013-05-18 21:17:00,64.7,45.9,0.00,West,281,9.5,16.0,51,0.00,,,0.00,WUHU216CR1000,2013-05-19 04:17:00,
2013-05-18 21:22:00,64.7,45.9,0.00,West,281,9.5,16.0,51,0.00,,,0.00,WUHU216CR1000,2013-05-19 04:22:00,
2013-05-18 21:32:00,64.2,45.4,0.00,WNW,288,9.1,16.2,50,0.00,,,0.00,WUHU216CR1000,2013-05-19 04:32:00,
2013-05-18 21:37:00,64.2,45.4,0.00,WNW,288,9.1,16.2,50,0.00,,,0.00,WUHU216CR1000,2013-05-19 04:37:00,
2013-05-18 21:47:00,63.8,45.0,0.00,WNW,287,9.9,18.5,50,0.00,,,0.00,WUHU216CR1000,2013-05-19 04:47:00,
2013-05-18 21:52:00,63.8,45.0,0.00,WNW,287,9.9,18.5,50,0.00,,,0.00,WUHU216CR1000,2013-05-19 04:52:00,
2013-05-18 22:02:00,63.5,44.9,0.00,WNW,290,11.2,19.3,51,0.00,,,0.00,WUHU216CR1000,2013-05-19 05:02:00,
2013-05-18 22:07:00,63.5,44.9,0.00,WNW,290,11.2,19.3,51,0.00,,,0.00,WUHU216CR1000,2013-05-19 05:07:00,
2013-05-18 22:17:00,63.1,44.9,0.00,WNW,294,11.9,21.9,51,0.00,,,0.00,WUHU216CR1000,2013-05-19 05:17:00,
2013-05-18 22:22:00,63.1,44.9,0.00,WNW,294,11.9,21.9,51,0.00,,,0.00,WUHU216CR1000,2013-05-19 05:22:00,
2013-05-18 22:32:00,62.5,44.9,0.00,WNW,291,10.7,17.6,52,0.00,,,0.00,WUHU216CR1000,2013-05-19 05:32:00,
2013-05-18 22:37:00,62.5,44.9,0.00,WNW,291,10.7,17.6,52,0.00,,,0.00,WUHU216CR1000,2013-05-19 05:37:00,
2013-05-18 22:47:00,61.8,44.9,0.00,WNW,290,12.7,23.3,54,0.00,,,0.00,WUHU216CR1000,2013-05-19 05:47:00,
2013-05-18 22:52:00,61.8,44.9,0.00,WNW,290,12.7,23.3,54,0.00,,,0.00,WUHU216CR1000,2013-05-19 05:52:00,
2013-05-18 23:02:00,61.0,44.8,0.00,WNW,293,11.6,20.8,55,0.00,,,0.00,WUHU216CR1000,2013-05-19 06:02:00,
2013-05-18 23:07:00,61.0,44.8,0.00,WNW,293,11.6,20.8,55,0.00,,,0.00,WUHU216CR1000,2013-05-19 06:07:00,
2013-05-18 23:17:00,60.4,44.6,0.00,WNW,299,8.3,17.0,56,0.00,,,0.00,WUHU216CR1000,2013-05-19 06:17:00,
2013-05-18 23:22:00,60.4,44.6,0.00,WNW,299,8.3,17.0,56,0.00,,,0.00,WUHU216CR1000,2013-05-19 06:22:00,
2013-05-18 23:32:00,59.7,44.5,0.00,WNW,294,5.8,13.8,57,0.00,,,0.00,WUHU216CR1000,2013-05-19 06:32:00,
2013-05-18 23:37:00,59.7,44.5,0.00,WNW,294,5.8,13.8,57,0.00,,,0.00,WUHU216CR1000,2013-05-19 06:37:00,
2013-05-18 23:47:00,59.4,44.5,0.00,WNW,302,7.5,14.0,58,0.00,,,0.00,WUHU216CR1000,2013-05-19 06:47:00,
2013-05-18 23:52:00,59.4,44.5,0.00,WNW,302,7.5,14.0,58,0.00,,,0.00,WUHU216CR1000,2013-05-19 06:52:00,